KSOW/SOW METAR and TAF weather

Enter ICAO airport designator
Station Type Date Time Source
KSOW METAR 2019/08/25 07:15 UTC NOAA

KSOW 250715Z AUTO 18009KT 10SM CLR 19/14 A3029 RMK AO2


Station Type Date Time Source
KSOW Decoded METAR 2019/08/25 07:15 UTC NOAA

Station name not available
Aug 25, 2019 - 03:15 AM EDT / 2019.08.25 0715 UTC
Wind: from the S (180 degrees) at 10 MPH (9 KT):0
Visibility: 10 mile(s):0
Sky conditions: clear
Temperature: 66 F (19 C)
Dew Point: 57 F (14 C)
Relative Humidity: 72%
Pressure (altimeter): 30.29 in. Hg (1025 hPa)
ob: KSOW 250715Z AUTO 18009KT 10SM CLR 19/14 A3029 RMK AO2
cycle: 7

Station Type Date Time Source
KSOW TAF UTC NOAA

Error!

Example: see airport list